sensor_id;sensor_type;location;lat;lon;timestamp;pressure;altitude;pressure_sealevel;temperature;humidity
42603;BME280;28233;55.748;48.752;2022-07-23T00:01:48;98781.66;;;20.75;64.34
42603;BME280;28233;55.748;48.752;2022-07-23T00:03:51;98776.88;;;20.72;64.76
42603;BME280;28233;55.748;48.752;2022-07-23T00:05:56;98774.13;;;20.64;65.04
42603;BME280;28233;55.748;48.752;2022-07-23T00:07:58;98773.34;;;20.64;64.74
42603;BME280;28233;55.748;48.752;2022-07-23T00:10:02;98774.13;;;20.64;65.05
42603;BME280;28233;55.748;48.752;2022-07-23T00:12:05;98776.13;;;20.64;65.14
42603;BME280;28233;55.748;48.752;2022-07-23T00:14:08;98782.91;;;20.63;65.14
42603;BME280;28233;55.748;48.752;2022-07-23T00:16:10;98779.75;;;20.61;65.23
42603;BME280;28233;55.748;48.752;2022-07-23T00:18:13;98785.31;;;20.57;66.00
42603;BME280;28233;55.748;48.752;2022-07-23T00:20:16;98783.75;;;20.49;67.00
42603;BME280;28233;55.748;48.752;2022-07-23T00:22:18;98785.78;;;20.41;67.89
42603;BME280;28233;55.748;48.752;2022-07-23T00:24:21;98791.81;;;20.29;68.84
42603;BME280;28233;55.748;48.752;2022-07-23T00:26:23;98788.66;;;20.20;69.68
42603;BME280;28233;55.748;48.752;2022-07-23T00:28:26;98785.09;;;20.12;71.20
42603;BME280;28233;55.748;48.752;2022-07-23T00:30:29;98784.75;;;20.03;73.07
42603;BME280;28233;55.748;48.752;2022-07-23T00:34:56;98781.19;;;19.84;74.77
42603;BME280;28233;55.748;48.752;2022-07-23T00:36:59;98793.97;;;19.78;74.71
42603;BME280;28233;55.748;48.752;2022-07-23T00:39:02;98797.16;;;19.77;74.36
42603;BME280;28233;55.748;48.752;2022-07-23T00:41:06;98784.44;;;19.72;74.64
42603;BME280;28233;55.748;48.752;2022-07-23T00:43:08;98788.03;;;19.69;74.83
42603;BME280;28233;55.748;48.752;2022-07-23T00:45:11;98789.19;;;19.68;75.14
42603;BME280;28233;55.748;48.752;2022-07-23T00:47:14;98797.97;;;19.70;74.89
42603;BME280;28233;55.748;48.752;2022-07-23T00:49:17;98793.19;;;19.71;74.81
42603;BME280;28233;55.748;48.752;2022-07-23T00:51:19;98797.97;;;19.70;74.81
42603;BME280;28233;55.748;48.752;2022-07-23T00:53:22;98793.59;;;19.69;74.92
42603;BME280;28233;55.748;48.752;2022-07-23T00:55:26;98803.13;;;19.68;75.05
42603;BME280;28233;55.748;48.752;2022-07-23T00:57:28;98795.59;;;19.69;75.05
42603;BME280;28233;55.748;48.752;2022-07-23T00:59:31;98793.16;;;19.67;74.92
42603;BME280;28233;55.748;48.752;2022-07-23T01:01:34;98794.78;;;19.68;74.93
42603;BME280;28233;55.748;48.752;2022-07-23T01:03:37;98793.94;;;19.68;74.68
42603;BME280;28233;55.748;48.752;2022-07-23T01:05:39;98796.75;;;19.68;74.61
42603;BME280;28233;55.748;48.752;2022-07-23T01:07:42;98794.38;;;19.70;74.81
42603;BME280;28233;55.748;48.752;2022-07-23T01:09:46;98799.97;;;19.70;75.18
42603;BME280;28233;55.748;48.752;2022-07-23T01:11:50;98804.75;;;19.69;75.63
42603;BME280;28233;55.748;48.752;2022-07-23T01:13:53;98807.94;;;19.71;75.73
42603;BME280;28233;55.748;48.752;2022-07-23T01:15:56;98810.28;;;19.73;76.51
42603;BME280;28233;55.748;48.752;2022-07-23T01:17:59;98809.50;;;19.72;77.09
42603;BME280;28233;55.748;48.752;2022-07-23T01:20:02;98807.50;;;19.73;77.87
42603;BME280;28233;55.748;48.752;2022-07-23T01:22:06;98808.31;;;19.73;78.69
42603;BME280;28233;55.748;48.752;2022-07-23T01:24:10;98813.91;;;19.73;78.69
42603;BME280;28233;55.748;48.752;2022-07-23T01:26:13;98809.50;;;19.72;78.75
42603;BME280;28233;55.748;48.752;2022-07-23T01:28:18;98803.94;;;19.72;78.08
42603;BME280;28233;55.748;48.752;2022-07-23T01:30:20;98811.50;;;19.72;77.81
42603;BME280;28233;55.748;48.752;2022-07-23T01:32:23;98805.94;;;19.72;78.15
42603;BME280;28233;55.748;48.752;2022-07-23T01:34:25;98821.84;;;19.75;78.30
42603;BME280;28233;55.748;48.752;2022-07-23T01:36:28;98825.41;;;19.75;78.53
42603;BME280;28233;55.748;48.752;2022-07-23T01:38:31;98823.06;;;19.74;78.85
42603;BME280;28233;55.748;48.752;2022-07-23T01:40:33;98824.63;;;19.75;79.46
42603;BME280;28233;55.748;48.752;2022-07-23T01:42:36;98827.44;;;19.71;80.45
42603;BME280;28233;55.748;48.752;2022-07-23T01:44:40;98834.59;;;19.69;81.25
42603;BME280;28233;55.748;48.752;2022-07-23T01:46:42;98829.41;;;19.67;82.00
42603;BME280;28233;55.748;48.752;2022-07-23T01:48:45;98811.91;;;19.52;82.66
42603;BME280;28233;55.748;48.752;2022-07-23T01:50:47;98822.63;;;19.61;82.74
42603;BME280;28233;55.748;48.752;2022-07-23T01:52:50;98822.63;;;19.61;82.54
42603;BME280;28233;55.748;48.752;2022-07-23T01:54:53;98828.59;;;19.56;82.46
42603;BME280;28233;55.748;48.752;2022-07-23T01:56:56;98818.66;;;19.55;82.11
42603;BME280;28233;55.748;48.752;2022-07-23T01:58:59;98829.81;;;19.55;82.04
42603;BME280;28233;55.748;48.752;2022-07-23T02:01:02;98833.78;;;19.57;82.28
42603;BME280;28233;55.748;48.752;2022-07-23T02:03:04;98825.00;;;19.59;82.19
42603;BME280;28233;55.748;48.752;2022-07-23T02:05:11;98833.78;;;19.61;81.91
42603;BME280;28233;55.748;48.752;2022-07-23T02:07:14;98829.00;;;19.61;81.83
42603;BME280;28233;55.748;48.752;2022-07-23T02:09:16;98828.59;;;19.67;81.38
42603;BME280;28233;55.748;48.752;2022-07-23T02:11:19;98829.81;;;19.76;80.82
42603;BME280;28233;55.748;48.752;2022-07-23T02:13:22;98834.16;;;19.84;79.63
42603;BME280;28233;55.748;48.752;2022-07-23T02:15:24;98840.13;;;19.94;78.38
42603;BME280;28233;55.748;48.752;2022-07-23T02:17:27;98835.75;;;20.00;77.13
42603;BME280;28233;55.748;48.752;2022-07-23T02:19:29;98827.34;;;20.07;76.73
42603;BME280;28233;55.748;48.752;2022-07-23T02:21:32;98835.69;;;20.14;76.19
42603;BME280;28233;55.748;48.752;2022-07-23T02:23:35;98821.34;;;20.19;75.93
42603;BME280;28233;55.748;48.752;2022-07-23T02:25:37;98831.69;;;20.26;75.82
42603;BME280;28233;55.748;48.752;2022-07-23T02:27:40;98829.69;;;20.30;75.71
42603;BME280;28233;55.748;48.752;2022-07-23T02:29:43;98834.84;;;20.35;75.50
42603;BME280;28233;55.748;48.752;2022-07-23T02:31:45;98829.63;;;20.41;75.18
42603;BME280;28233;55.748;48.752;2022-07-23T02:33:49;98830.00;;;20.43;74.28
42603;BME280;28233;55.748;48.752;2022-07-23T02:35:51;98836.34;;;20.51;74.06
42603;BME280;28233;55.748;48.752;2022-07-23T02:37:54;98833.97;;;20.56;73.60
42603;BME280;28233;55.748;48.752;2022-07-23T02:39:56;98832.78;;;20.57;73.40
42603;BME280;28233;55.748;48.752;2022-07-23T02:41:59;98829.59;;;20.59;72.97
42603;BME280;28233;55.748;48.752;2022-07-23T02:44:02;98837.56;;;20.60;73.24
42603;BME280;28233;55.748;48.752;2022-07-23T02:46:04;98825.56;;;20.60;73.25
42603;BME280;28233;55.748;48.752;2022-07-23T02:48:07;98833.16;;;20.59;73.12
42603;BME280;28233;55.748;48.752;2022-07-23T02:50:09;98835.16;;;20.59;72.69
42603;BME280;28233;55.748;48.752;2022-07-23T02:52:13;98837.56;;;20.60;72.14
42603;BME280;28233;55.748;48.752;2022-07-23T02:54:16;98828.75;;;20.65;71.71
42603;BME280;28233;55.748;48.752;2022-07-23T02:56:18;98838.28;;;20.72;71.04
42603;BME280;28233;55.748;48.752;2022-07-23T02:58:21;98837.06;;;20.80;71.33
42603;BME280;28233;55.748;48.752;2022-07-23T03:00:23;98825.06;;;20.86;70.48
42603;BME280;28233;55.748;48.752;2022-07-23T03:02:26;98834.19;;;20.94;70.00
42603;BME280;28233;55.748;48.752;2022-07-23T03:04:29;98834.56;;;20.96;68.82
42603;BME280;28233;55.748;48.752;2022-07-23T03:06:31;98834.50;;;21.03;68.97
42603;BME280;28233;55.748;48.752;2022-07-23T03:08:34;98839.25;;;21.10;69.60
42603;BME280;28233;55.748;48.752;2022-07-23T03:10:36;98830.06;;;21.13;69.19
42603;BME280;28233;55.748;48.752;2022-07-23T03:12:39;98829.63;;;21.18;69.05
42603;BME280;28233;55.748;48.752;2022-07-23T03:14:41;98830.78;;;21.21;69.77
42603;BME280;28233;55.748;48.752;2022-07-23T03:16:44;98832.78;;;21.24;69.79
42603;BME280;28233;55.748;48.752;2022-07-23T03:18:47;98830.34;;;21.29;69.41
42603;BME280;28233;55.748;48.752;2022-07-23T03:20:49;98829.09;;;21.34;69.32
42603;BME280;28233;55.748;48.752;2022-07-23T03:22:52;98824.28;;;21.38;69.00
42603;BME280;28233;55.748;48.752;2022-07-23T03:24:55;98833.88;;;21.41;68.94
42603;BME280;28233;55.748;48.752;2022-07-23T03:26:57;98832.25;;;21.43;68.75
42603;BME280;28233;55.748;48.752;2022-07-23T03:29:00;98833.84;;;21.44;69.69
42603;BME280;28233;55.748;48.752;2022-07-23T03:31:04;98829.81;;;21.49;69.99
42603;BME280;28233;55.748;48.752;2022-07-23T03:33:06;98833.38;;;21.53;69.29
42603;BME280;28233;55.748;48.752;2022-07-23T03:35:09;98827.34;;;21.58;68.17
42603;BME280;28233;55.748;48.752;2022-07-23T03:37:12;98832.13;;;21.58;67.55
42603;BME280;28233;55.748;48.752;2022-07-23T03:39:14;98828.47;;;21.64;67.76
42603;BME280;28233;55.748;48.752;2022-07-23T03:41:18;98827.69;;;21.64;69.25
42603;BME280;28233;55.748;48.752;2022-07-23T03:43:20;98833.63;;;21.66;69.23
42603;BME280;28233;55.748;48.752;2022-07-23T03:45:23;98830.44;;;21.67;69.69
42603;BME280;28233;55.748;48.752;2022-07-23T03:47:25;98828.81;;;21.70;70.00
42603;BME280;28233;55.748;48.752;2022-07-23T03:49:28;98830.00;;;21.72;70.87
42603;BME280;28233;55.748;48.752;2022-07-23T03:51:31;98831.16;;;21.75;70.25
42603;BME280;28233;55.748;48.752;2022-07-23T03:53:34;98827.94;;;21.80;70.28
42603;BME280;28233;55.748;48.752;2022-07-23T03:55:37;98833.03;;;21.89;69.96
42603;BME280;28233;55.748;48.752;2022-07-23T03:57:40;98832.16;;;21.95;69.09
42603;BME280;28233;55.748;48.752;2022-07-23T03:59:42;98834.56;;;21.97;68.36
42603;BME280;28233;55.748;48.752;2022-07-23T04:01:46;98836.91;;;22.02;67.51
42603;BME280;28233;55.748;48.752;2022-07-23T04:03:48;98831.31;;;22.02;67.85
42603;BME280;28233;55.748;48.752;2022-07-23T04:05:51;98836.50;;;22.04;67.68
42603;BME280;28233;55.748;48.752;2022-07-23T04:07:54;98834.81;;;22.10;68.47
42603;BME280;28233;55.748;48.752;2022-07-23T04:09:56;98833.91;;;22.20;67.90
42603;BME280;28233;55.748;48.752;2022-07-23T04:11:59;98837.09;;;22.22;67.83
42603;BME280;28233;55.748;48.752;2022-07-23T04:14:02;98833.88;;;22.24;68.11
42603;BME280;28233;55.748;48.752;2022-07-23T04:16:04;98837.09;;;22.22;66.81
42603;BME280;28233;55.748;48.752;2022-07-23T04:18:08;98839.47;;;22.27;66.62
42603;BME280;28233;55.748;48.752;2022-07-23T04:20:11;98839.00;;;22.32;65.35
42603;BME280;28233;55.748;48.752;2022-07-23T04:22:14;98838.91;;;22.40;65.57
42603;BME280;28233;55.748;48.752;2022-07-23T04:24:16;98835.63;;;22.45;65.21
42603;BME280;28233;55.748;48.752;2022-07-23T04:26:19;98846.72;;;22.55;65.06
42603;BME280;28233;55.748;48.752;2022-07-23T04:28:23;98831.47;;;22.60;64.16
42603;BME280;28233;55.748;48.752;2022-07-23T04:30:26;98833.34;;;22.67;64.19
42603;BME280;28233;55.748;48.752;2022-07-23T04:32:28;98834.88;;;22.71;61.60
42603;BME280;28233;55.748;48.752;2022-07-23T04:34:31;98836.81;;;22.78;63.16
42603;BME280;28233;55.748;48.752;2022-07-23T04:36:33;98828.69;;;22.87;62.41
42603;BME280;28233;55.748;48.752;2022-07-23T04:38:36;98827.38;;;22.95;62.40
42603;BME280;28233;55.748;48.752;2022-07-23T04:40:38;98830.50;;;23.01;61.45
42603;BME280;28233;55.748;48.752;2022-07-23T04:42:41;98839.66;;;23.05;60.98
42603;BME280;28233;55.748;48.752;2022-07-23T04:44:44;98827.56;;;23.12;61.33
42603;BME280;28233;55.748;48.752;2022-07-23T04:46:46;98825.38;;;23.23;60.64
42603;BME280;28233;55.748;48.752;2022-07-23T04:48:51;98819.34;;;23.25;60.36
42603;BME280;28233;55.748;48.752;2022-07-23T04:50:54;98822.91;;;23.29;59.51
42603;BME280;28233;55.748;48.752;2022-07-23T04:52:57;98822.78;;;23.36;59.62
42603;BME280;28233;55.748;48.752;2022-07-23T04:54:59;98822.59;;;23.47;59.38
42603;BME280;28233;55.748;48.752;2022-07-23T04:57:04;98820.03;;;23.56;59.38
42603;BME280;28233;55.748;48.752;2022-07-23T04:59:06;98821.19;;;23.58;57.76
42603;BME280;28233;55.748;48.752;2022-07-23T05:01:09;98824.59;;;23.70;59.33
42603;BME280;28233;55.748;48.752;2022-07-23T05:03:11;98821.69;;;23.77;59.12
42603;BME280;28233;55.748;48.752;2022-07-23T05:05:14;98820.38;;;23.85;59.69
42603;BME280;28233;55.748;48.752;2022-07-23T05:07:17;98824.59;;;23.93;59.11
42603;BME280;28233;55.748;48.752;2022-07-23T05:09:19;98828.13;;;23.97;59.62
42603;BME280;28233;55.748;48.752;2022-07-23T05:11:22;98825.63;;;24.03;58.96
42603;BME280;28233;55.748;48.752;2022-07-23T05:13:28;98827.13;;;24.08;57.38
42603;BME280;28233;55.748;48.752;2022-07-23T05:15:31;98827.13;;;24.08;54.92
42603;BME280;28233;55.748;48.752;2022-07-23T05:17:33;98825.47;;;24.10;56.47
42603;BME280;28233;55.748;48.752;2022-07-23T05:19:36;98822.97;;;24.16;57.42
42603;BME280;28233;55.748;48.752;2022-07-23T05:21:38;98822.97;;;24.16;58.01
42603;BME280;28233;55.748;48.752;2022-07-23T05:23:41;98828.22;;;24.14;55.36
42603;BME280;28233;55.748;48.752;2022-07-23T05:25:43;98828.22;;;24.14;57.68
42603;BME280;28233;55.748;48.752;2022-07-23T05:27:46;98817.38;;;24.16;56.36
42603;BME280;28233;55.748;48.752;2022-07-23T05:29:49;98822.84;;;24.23;58.30
42603;BME280;28233;55.748;48.752;2022-07-23T05:31:52;98828.16;;;24.37;58.45
42603;BME280;28233;55.748;48.752;2022-07-23T05:33:54;98830.41;;;24.46;57.46
42603;BME280;28233;55.748;48.752;2022-07-23T05:36:01;98825.34;;;24.57;56.82
42603;BME280;28233;55.748;48.752;2022-07-23T05:38:04;98827.31;;;24.60;55.60
42603;BME280;28233;55.748;48.752;2022-07-23T05:40:09;98825.34;;;24.57;57.85
42603;BME280;28233;55.748;48.752;2022-07-23T05:42:11;98833.16;;;24.70;57.61
42603;BME280;28233;55.748;48.752;2022-07-23T05:44:14;98832.00;;;24.67;55.60
42603;BME280;28233;55.748;48.752;2022-07-23T05:46:17;98813.13;;;24.67;57.24
42603;BME280;28233;55.748;48.752;2022-07-23T05:48:20;98816.97;;;24.74;56.40
42603;BME280;28233;55.748;48.752;2022-07-23T05:50:22;98816.03;;;24.80;56.40
42603;BME280;28233;55.748;48.752;2022-07-23T05:52:25;98815.53;;;24.85;55.50
42603;BME280;28233;55.748;48.752;2022-07-23T05:54:27;98819.75;;;24.94;54.91
42603;BME280;28233;55.748;48.752;2022-07-23T05:56:30;98818.88;;;24.97;55.15
42603;BME280;28233;55.748;48.752;2022-07-23T05:58:33;98825.56;;;25.03;53.82
42603;BME280;28233;55.748;48.752;2022-07-23T06:00:35;98826.28;;;25.07;52.13
42603;BME280;28233;55.748;48.752;2022-07-23T06:02:38;98818.13;;;25.13;52.83
42603;BME280;28233;55.748;48.752;2022-07-23T06:04:42;98814.25;;;25.06;53.16
42603;BME280;28233;55.748;48.752;2022-07-23T06:06:44;98815.47;;;25.05;51.25
42603;BME280;28233;55.748;48.752;2022-07-23T06:08:47;98821.09;;;25.05;50.93
42603;BME280;28233;55.748;48.752;2022-07-23T06:10:49;98822.59;;;25.10;50.23
42603;BME280;28233;55.748;48.752;2022-07-23T06:12:52;98815.59;;;25.18;49.03
42603;BME280;28233;55.748;48.752;2022-07-23T06:15:03;98813.06;;;25.24;48.79
42603;BME280;28233;55.748;48.752;2022-07-23T06:17:12;98814.22;;;25.26;50.47
42603;BME280;28233;55.748;48.752;2022-07-23T06:19:14;98803.56;;;25.34;50.97
42603;BME280;28233;55.748;48.752;2022-07-23T06:21:17;98806.81;;;25.33;52.22
42603;BME280;28233;55.748;48.752;2022-07-23T06:23:40;98809.13;;;25.21;51.09
42603;BME280;28233;55.748;48.752;2022-07-23T06:25:42;98808.38;;;25.17;50.37
42603;BME280;28233;55.748;48.752;2022-07-23T06:27:45;98811.47;;;25.23;50.73
42603;BME280;28233;55.748;48.752;2022-07-23T06:29:48;98805.78;;;25.26;50.86
42603;BME280;28233;55.748;48.752;2022-07-23T06:31:50;98801.91;;;25.37;49.18
42603;BME280;28233;55.748;48.752;2022-07-23T06:33:53;98812.63;;;25.42;47.92
42603;BME280;28233;55.748;48.752;2022-07-23T06:35:55;98799.09;;;25.37;48.43
42603;BME280;28233;55.748;48.752;2022-07-23T06:37:58;98810.25;;;25.40;47.85
42603;BME280;28233;55.748;48.752;2022-07-23T06:40:02;98812.44;;;25.49;48.54
42603;BME280;28233;55.748;48.752;2022-07-23T06:42:07;98813.38;;;25.59;49.06
42603;BME280;28233;55.748;48.752;2022-07-23T06:44:09;98815.88;;;25.57;48.46
42603;BME280;28233;55.748;48.752;2022-07-23T06:46:12;98809.59;;;25.65;47.94
42603;BME280;28233;55.748;48.752;2022-07-23T06:48:15;98808.91;;;25.78;48.56
42603;BME280;28233;55.748;48.752;2022-07-23T06:50:17;98816.09;;;25.79;48.88
42603;BME280;28233;55.748;48.752;2022-07-23T06:52:20;98817.19;;;25.68;49.64
42603;BME280;28233;55.748;48.752;2022-07-23T06:54:23;98807.69;;;25.62;48.80
42603;BME280;28233;55.748;48.752;2022-07-23T06:56:25;98806.31;;;25.54;48.57
42603;BME280;28233;55.748;48.752;2022-07-23T06:58:28;98806.97;;;25.58;50.18
42603;BME280;28233;55.748;48.752;2022-07-23T07:00:31;98811.75;;;25.61;50.44
42603;BME280;28233;55.748;48.752;2022-07-23T07:02:34;98819.66;;;25.66;50.51
42603;BME280;28233;55.748;48.752;2022-07-23T07:04:37;98816.47;;;25.64;49.47
42603;BME280;28233;55.748;48.752;2022-07-23T07:06:39;98811.56;;;25.68;49.75
42603;BME280;28233;55.748;48.752;2022-07-23T07:08:42;98811.38;;;25.76;49.27
42603;BME280;28233;55.748;48.752;2022-07-23T07:10:46;98818.84;;;25.82;49.23
42603;BME280;28233;55.748;48.752;2022-07-23T07:12:48;98807.31;;;25.93;49.13
42603;BME280;28233;55.748;48.752;2022-07-23T07:14:51;98814.78;;;26.00;49.67
42603;BME280;28233;55.748;48.752;2022-07-23T07:16:53;98813.31;;;26.08;48.75
42603;BME280;28233;55.748;48.752;2022-07-23T07:18:56;98814.38;;;26.14;48.95
42603;BME280;28233;55.748;48.752;2022-07-23T07:20:59;98820.34;;;26.16;48.45
42603;BME280;28233;55.748;48.752;2022-07-23T07:23:01;98815.34;;;26.07;47.57
42603;BME280;28233;55.748;48.752;2022-07-23T07:25:05;98819.97;;;26.01;48.83
42603;BME280;28233;55.748;48.752;2022-07-23T07:27:08;98818.56;;;25.93;48.45
42603;BME280;28233;55.748;48.752;2022-07-23T07:29:10;98813.88;;;26.03;49.68
42603;BME280;28233;55.748;48.752;2022-07-23T07:31:13;98815.50;;;26.17;49.89
42603;BME280;28233;55.748;48.752;2022-07-23T07:33:16;98810.84;;;26.10;49.53
42603;BME280;28233;55.748;48.752;2022-07-23T07:35:18;98810.41;;;26.11;48.90
42603;BME280;28233;55.748;48.752;2022-07-23T07:37:21;98817.97;;;26.14;50.60
42603;BME280;28233;55.748;48.752;2022-07-23T07:39:23;98808.66;;;26.18;50.24
42603;BME280;28233;55.748;48.752;2022-07-23T07:41:26;98821.28;;;26.26;48.64
42603;BME280;28233;55.748;48.752;2022-07-23T07:43:29;98810.59;;;26.33;46.70
42603;BME280;28233;55.748;48.752;2022-07-23T07:45:31;98804.41;;;26.39;47.29
42603;BME280;28233;55.748;48.752;2022-07-23T07:47:34;98809.59;;;26.40;47.52
42603;BME280;28233;55.748;48.752;2022-07-23T07:49:36;98802.78;;;26.54;48.10
42603;BME280;28233;55.748;48.752;2022-07-23T07:51:39;98808.13;;;26.65;48.18
42603;BME280;28233;55.748;48.752;2022-07-23T07:53:41;98801.72;;;26.77;48.89
42603;BME280;28233;55.748;48.752;2022-07-23T07:55:46;98808.34;;;26.83;47.33
42603;BME280;28233;55.748;48.752;2022-07-23T07:57:53;98808.69;;;26.72;48.11
42603;BME280;28233;55.748;48.752;2022-07-23T07:59:55;98814.19;;;26.76;48.30
42603;BME280;28233;55.748;48.752;2022-07-23T08:02:05;98800.09;;;26.76;47.30
42603;BME280;28233;55.748;48.752;2022-07-23T08:04:07;98810.03;;;26.81;48.05
42603;BME280;28233;55.748;48.752;2022-07-23T08:06:10;98804.09;;;26.91;47.97
42603;BME280;28233;55.748;48.752;2022-07-23T08:08:13;98801.72;;;27.03;46.33
42603;BME280;28233;55.748;48.752;2022-07-23T08:10:19;98810.19;;;27.03;46.46
42603;BME280;28233;55.748;48.752;2022-07-23T08:12:22;98801.38;;;27.01;47.29
42603;BME280;28233;55.748;48.752;2022-07-23T08:14:24;98818.41;;;27.10;47.04
42603;BME280;28233;55.748;48.752;2022-07-23T08:16:27;98809.38;;;27.15;46.89
42603;BME280;28233;55.748;48.752;2022-07-23T08:18:31;98806.34;;;27.22;46.62
42603;BME280;28233;55.748;48.752;2022-07-23T08:20:33;98813.47;;;27.27;47.57
42603;BME280;28233;55.748;48.752;2022-07-23T08:22:44;98811.88;;;27.38;47.14
42603;BME280;28233;55.748;48.752;2022-07-23T08:24:47;98809.97;;;27.35;46.97
42603;BME280;28233;55.748;48.752;2022-07-23T08:26:50;98809.50;;;27.24;47.98
42603;BME280;28233;55.748;48.752;2022-07-23T08:28:52;98805.69;;;27.31;47.26
42603;BME280;28233;55.748;48.752;2022-07-23T08:30:55;98815.38;;;27.43;46.91
42603;BME280;28233;55.748;48.752;2022-07-23T08:32:59;98816.44;;;27.58;46.54
42603;BME280;28233;55.748;48.752;2022-07-23T08:35:03;98820.97;;;27.68;47.02
42603;BME280;28233;55.748;48.752;2022-07-23T08:37:06;98816.81;;;27.82;47.02
42603;BME280;28233;55.748;48.752;2022-07-23T08:39:08;98822.47;;;27.95;45.77
42603;BME280;28233;55.748;48.752;2022-07-23T08:41:12;98817.09;;;27.88;46.11
42603;BME280;28233;55.748;48.752;2022-07-23T08:43:17;98823.19;;;27.73;46.89
42603;BME280;28233;55.748;48.752;2022-07-23T08:45:23;98825.28;;;27.82;46.45
42603;BME280;28233;55.748;48.752;2022-07-23T08:47:25;98827.44;;;27.91;45.89
42603;BME280;28233;55.748;48.752;2022-07-23T08:49:30;98819.66;;;27.95;46.21
42603;BME280;28233;55.748;48.752;2022-07-23T08:51:34;98828.22;;;28.04;45.74
42603;BME280;28233;55.748;48.752;2022-07-23T08:53:36;98825.72;;;28.06;44.54
42603;BME280;28233;55.748;48.752;2022-07-23T08:55:44;98827.63;;;28.09;44.41
42603;BME280;28233;55.748;48.752;2022-07-23T08:57:49;98813.34;;;27.91;45.59
42603;BME280;28233;55.748;48.752;2022-07-23T08:59:52;98823.28;;;27.82;45.72
42603;BME280;28233;55.748;48.752;2022-07-23T09:01:55;98822.81;;;27.97;45.28
42603;BME280;28233;55.748;48.752;2022-07-23T09:03:57;98819.25;;;28.06;45.77
42603;BME280;28233;55.748;48.752;2022-07-23T09:06:01;98822.97;;;28.15;45.08
42603;BME280;28233;55.748;48.752;2022-07-23T09:08:15;98819.06;;;28.22;45.19
42603;BME280;28233;55.748;48.752;2022-07-23T09:10:18;98821.19;;;28.31;44.23
42603;BME280;28233;55.748;48.752;2022-07-23T09:12:26;98828.94;;;28.39;44.05
42603;BME280;28233;55.748;48.752;2022-07-23T09:14:40;98823.41;;;28.36;43.54
42603;BME280;28233;55.748;48.752;2022-07-23T09:16:42;98820.31;;;28.43;44.04
42603;BME280;28233;55.748;48.752;2022-07-23T09:19:01;98815.41;;;28.56;44.26
42603;BME280;28233;55.748;48.752;2022-07-23T09:21:08;98815.03;;;28.67;43.42
42603;BME280;28233;55.748;48.752;2022-07-23T09:23:11;98815.19;;;28.73;43.29
42603;BME280;28233;55.748;48.752;2022-07-23T09:27:16;98821.31;;;28.71;43.13
42603;BME280;28233;55.748;48.752;2022-07-23T09:29:21;98827.44;;;28.70;41.79
42603;BME280;28233;55.748;48.752;2022-07-23T09:31:56;98820.69;;;28.67;41.38
42603;BME280;28233;55.748;48.752;2022-07-23T09:36:28;98817.69;;;28.71;41.03
42603;BME280;28233;55.748;48.752;2022-07-23T09:38:31;98832.16;;;28.73;41.79
42603;BME280;28233;55.748;48.752;2022-07-23T09:40:39;98826.84;;;28.75;42.22
42603;BME280;28233;55.748;48.752;2022-07-23T09:42:54;98816.47;;;28.50;41.28
42603;BME280;28233;55.748;48.752;2022-07-23T09:44:58;98827.31;;;28.51;42.19
42603;BME280;28233;55.748;48.752;2022-07-23T09:47:01;98825.47;;;28.57;41.50
42603;BME280;28233;55.748;48.752;2022-07-23T09:49:11;98815.59;;;28.62;41.21
42603;BME280;28233;55.748;48.752;2022-07-23T09:51:14;98809.72;;;28.78;42.01
42603;BME280;28233;55.748;48.752;2022-07-23T09:53:24;98817.78;;;28.89;41.06
42603;BME280;28233;55.748;48.752;2022-07-23T09:55:33;98814.31;;;28.85;40.83
42603;BME280;28233;55.748;48.752;2022-07-23T09:57:42;98812.72;;;28.75;40.80
42603;BME280;28233;55.748;48.752;2022-07-23T09:59:48;98811.25;;;28.70;40.57
42603;BME280;28233;55.748;48.752;2022-07-23T10:01:55;98804.28;;;28.62;40.26
42603;BME280;28233;55.748;48.752;2022-07-23T10:03:59;98802.84;;;28.79;42.13
42603;BME280;28233;55.748;48.752;2022-07-23T10:06:02;98802.75;;;29.01;43.08
42603;BME280;28233;55.748;48.752;2022-07-23T10:08:06;98798.31;;;29.22;42.55
42603;BME280;28233;55.748;48.752;2022-07-23T10:10:13;98796.34;;;29.50;42.03
42603;BME280;28233;55.748;48.752;2022-07-23T10:12:17;98797.47;;;29.62;40.62
42603;BME280;28233;55.748;48.752;2022-07-23T10:14:20;98796.97;;;29.55;39.35
42603;BME280;28233;55.748;48.752;2022-07-23T10:16:24;98795.19;;;29.29;39.75
42603;BME280;28233;55.748;48.752;2022-07-23T10:18:30;98799.38;;;29.16;39.44
42603;BME280;28233;55.748;48.752;2022-07-23T10:20:32;98799.91;;;28.92;40.12
42603;BME280;28233;55.748;48.752;2022-07-23T10:22:58;98794.06;;;28.86;39.90
42603;BME280;28233;55.748;48.752;2022-07-23T10:25:24;98794.44;;;28.98;39.45
42603;BME280;28233;55.748;48.752;2022-07-23T10:30:00;98791.28;;;28.96;38.99
42603;BME280;28233;55.748;48.752;2022-07-23T10:35:01;98786.50;;;29.15;40.11
42603;BME280;28233;55.748;48.752;2022-07-23T10:37:17;98793.78;;;29.34;38.81
42603;BME280;28233;55.748;48.752;2022-07-23T10:39:30;98785.66;;;29.55;37.60
42603;BME280;28233;55.748;48.752;2022-07-23T10:41:35;98783.94;;;29.57;38.15
42603;BME280;28233;55.748;48.752;2022-07-23T10:43:38;98782.22;;;29.60;37.29
42603;BME280;28233;55.748;48.752;2022-07-23T10:45:41;98786.78;;;29.66;39.03
42603;BME280;28233;55.748;48.752;2022-07-23T10:47:43;98773.13;;;29.92;38.50
42603;BME280;28233;55.748;48.752;2022-07-23T10:49:48;98771.53;;;30.19;39.57
42603;BME280;28233;55.748;48.752;2022-07-23T10:54:21;98781.75;;;30.44;36.71
42603;BME280;28233;55.748;48.752;2022-07-23T10:59:03;98783.50;;;30.42;36.29
42603;BME280;28233;55.748;48.752;2022-07-23T11:01:38;98782.53;;;30.17;36.26
42603;BME280;28233;55.748;48.752;2022-07-23T11:03:55;98780.34;;;30.30;36.54
42603;BME280;28233;55.748;48.752;2022-07-23T11:05:59;98783.28;;;30.54;35.83